sensor_id;sensor_type;location;lat;lon;timestamp;pressure;altitude;pressure_sealevel;temperature;humidity
14612;BME280;7392;52.078;11.650;2023-06-22T00:01:49;101161.47;;;21.02;91.65
14612;BME280;7392;52.078;11.650;2023-06-22T00:04:17;101164.28;;;20.99;92.24
14612;BME280;7392;52.078;11.650;2023-06-22T00:06:44;101161.63;;;20.97;92.88
14612;BME280;7392;52.078;11.650;2023-06-22T00:09:12;101153.66;;;20.94;93.38
14612;BME280;7392;52.078;11.650;2023-06-22T00:11:40;101159.16;;;20.92;93.97
14612;BME280;7392;52.078;11.650;2023-06-22T00:14:07;101159.25;;;20.89;93.66
14612;BME280;7392;52.078;11.650;2023-06-22T00:16:37;101153.09;;;20.86;94.08
14612;BME280;7392;52.078;11.650;2023-06-22T00:19:04;101148.75;;;20.82;93.76
14612;BME280;7392;52.078;11.650;2023-06-22T00:21:32;101154.34;;;20.77;93.68
14612;BME280;7392;52.078;11.650;2023-06-22T00:24:00;101165.25;;;20.74;93.90
14612;BME280;7392;52.078;11.650;2023-06-22T00:26:29;101153.69;;;20.70;93.87
14612;BME280;7392;52.078;11.650;2023-06-22T00:28:57;101147.53;;;20.67;94.30
14612;BME280;7392;52.078;11.650;2023-06-22T00:31:25;101151.25;;;20.63;94.71
14612;BME280;7392;52.078;11.650;2023-06-22T00:33:54;101156.72;;;20.60;94.65
14612;BME280;7392;52.078;11.650;2023-06-22T00:36:22;101162.19;;;20.58;94.91
14612;BME280;7392;52.078;11.650;2023-06-22T00:38:51;101162.31;;;20.55;95.12
14612;BME280;7392;52.078;11.650;2023-06-22T00:41:18;101170.53;;;20.52;95.53
14612;BME280;7392;52.078;11.650;2023-06-22T00:43:46;101165.25;;;20.49;95.77
14612;BME280;7392;52.078;11.650;2023-06-22T00:46:14;101163.47;;;20.48;95.76
14612;BME280;7392;52.078;11.650;2023-06-22T00:48:42;101167.22;;;20.44;95.85
14612;BME280;7392;52.078;11.650;2023-06-22T00:51:11;101171.81;;;20.42;95.98
14612;BME280;7392;52.078;11.650;2023-06-22T00:53:39;101173.75;;;20.38;96.03
14612;BME280;7392;52.078;11.650;2023-06-22T00:56:07;101170.19;;;20.36;95.92
14612;BME280;7392;52.078;11.650;2023-06-22T00:58:36;101169.41;;;20.32;96.38
14612;BME280;7392;52.078;11.650;2023-06-22T01:01:03;101172.16;;;20.31;96.57
14612;BME280;7392;52.078;11.650;2023-06-22T01:03:31;101177.69;;;20.28;96.64
14612;BME280;7392;52.078;11.650;2023-06-22T01:06:03;101175.94;;;20.27;96.56
14612;BME280;7392;52.078;11.650;2023-06-22T01:08:42;101177.84;;;20.23;96.64
14612;BME280;7392;52.078;11.650;2023-06-22T01:11:17;101190.53;;;20.21;96.75
14612;BME280;7392;52.078;11.650;2023-06-22T01:13:52;101185.19;;;20.20;97.25
14612;BME280;7392;52.078;11.650;2023-06-22T01:16:24;101189.81;;;20.16;97.46
14612;BME280;7392;52.078;11.650;2023-06-22T01:18:55;101191.69;;;20.14;97.46
14612;BME280;7392;52.078;11.650;2023-06-22T01:21:25;101182.72;;;20.12;97.57
14612;BME280;7392;52.078;11.650;2023-06-22T01:24:08;101190.88;;;20.10;97.94
14612;BME280;7392;52.078;11.650;2023-06-22T01:26:42;101194.63;;;20.06;97.88
14612;BME280;7392;52.078;11.650;2023-06-22T01:29:12;101191.06;;;20.06;98.16
14612;BME280;7392;52.078;11.650;2023-06-22T01:31:43;101184.84;;;20.04;98.15
14612;BME280;7392;52.078;11.650;2023-06-22T01:34:12;101183.13;;;20.01;98.53
14612;BME280;7392;52.078;11.650;2023-06-22T01:36:41;101172.34;;;20.01;98.67
14612;BME280;7392;52.078;11.650;2023-06-22T01:39:11;101171.53;;;19.99;98.32
14612;BME280;7392;52.078;11.650;2023-06-22T01:41:41;101173.44;;;19.95;98.42
14612;BME280;7392;52.078;11.650;2023-06-22T01:44:11;101171.66;;;19.94;98.73
14612;BME280;7392;52.078;11.650;2023-06-22T01:46:41;101168.16;;;19.92;98.58
14612;BME280;7392;52.078;11.650;2023-06-22T01:49:09;101157.41;;;19.91;98.21
14612;BME280;7392;52.078;11.650;2023-06-22T01:51:37;101149.44;;;19.88;97.97
14612;BME280;7392;52.078;11.650;2023-06-22T01:54:06;101147.69;;;19.87;98.40
14612;BME280;7392;52.078;11.650;2023-06-22T01:56:34;101145.97;;;19.84;98.21
14612;BME280;7392;52.078;11.650;2023-06-22T01:59:05;101153.28;;;19.80;98.37
14612;BME280;7392;52.078;11.650;2023-06-22T02:01:42;101156.03;;;19.79;98.43
14612;BME280;7392;52.078;11.650;2023-06-22T02:04:13;101157.94;;;19.75;98.23
14612;BME280;7392;52.078;11.650;2023-06-22T02:06:43;101159.78;;;19.73;98.20
14612;BME280;7392;52.078;11.650;2023-06-22T02:09:16;101152.66;;;19.71;98.16
14612;BME280;7392;52.078;11.650;2023-06-22T02:11:45;101143.81;;;19.67;98.10
14612;BME280;7392;52.078;11.650;2023-06-22T02:14:15;101152.00;;;19.64;98.35
14612;BME280;7392;52.078;11.650;2023-06-22T02:16:46;101144.91;;;19.61;97.89
14612;BME280;7392;52.078;11.650;2023-06-22T02:19:14;101143.22;;;19.57;98.43
14612;BME280;7392;52.078;11.650;2023-06-22T02:21:45;101153.19;;;19.55;98.48
14612;BME280;7392;52.078;11.650;2023-06-22T02:24:12;101148.78;;;19.53;98.13
14612;BME280;7392;52.078;11.650;2023-06-22T02:26:40;101156.09;;;19.49;98.52
14612;BME280;7392;52.078;11.650;2023-06-22T02:29:08;101152.56;;;19.47;98.79
14612;BME280;7392;52.078;11.650;2023-06-22T02:31:36;101155.38;;;19.44;98.91
14612;BME280;7392;52.078;11.650;2023-06-22T02:34:05;101157.22;;;19.42;98.98
14612;BME280;7392;52.078;11.650;2023-06-22T02:36:33;101158.19;;;19.39;98.87
14612;BME280;7392;52.078;11.650;2023-06-22T02:39:00;101157.38;;;19.37;99.52
14612;BME280;7392;52.078;11.650;2023-06-22T02:41:30;101161.03;;;19.35;99.58
14612;BME280;7392;52.078;11.650;2023-06-22T02:43:57;101154.88;;;19.31;99.67
14612;BME280;7392;52.078;11.650;2023-06-22T02:46:25;101162.06;;;19.31;99.49
14612;BME280;7392;52.078;11.650;2023-06-22T02:48:53;101167.41;;;19.32;99.82
14612;BME280;7392;52.078;11.650;2023-06-22T02:51:22;101150.47;;;19.29;99.60
14612;BME280;7392;52.078;11.650;2023-06-22T02:53:49;101159.47;;;19.28;99.47
14612;BME280;7392;52.078;11.650;2023-06-22T02:56:19;101153.22;;;19.27;99.59
14612;BME280;7392;52.078;11.650;2023-06-22T02:58:54;101145.19;;;19.25;99.56
14612;BME280;7392;52.078;11.650;2023-06-22T03:01:30;101154.13;;;19.26;99.27
14612;BME280;7392;52.078;11.650;2023-06-22T03:04:04;101149.75;;;19.23;99.56
14612;BME280;7392;52.078;11.650;2023-06-22T03:06:34;101153.34;;;19.22;99.20
14612;BME280;7392;52.078;11.650;2023-06-22T03:09:03;101156.06;;;19.22;99.15
14612;BME280;7392;52.078;11.650;2023-06-22T03:11:33;101156.13;;;19.19;98.58
14612;BME280;7392;52.078;11.650;2023-06-22T03:14:02;101157.97;;;19.19;98.68
14612;BME280;7392;52.078;11.650;2023-06-22T03:16:29;101158.78;;;19.21;98.91
14612;BME280;7392;52.078;11.650;2023-06-22T03:18:58;101157.88;;;19.22;99.08
14612;BME280;7392;52.078;11.650;2023-06-22T03:21:27;101164.13;;;19.22;99.17
14612;BME280;7392;52.078;11.650;2023-06-22T03:23:56;101166.78;;;19.24;99.62
14612;BME280;7392;52.078;11.650;2023-06-22T03:26:24;101172.16;;;19.24;99.12
14612;BME280;7392;52.078;11.650;2023-06-22T03:28:53;101176.56;;;19.27;99.42
14612;BME280;7392;52.078;11.650;2023-06-22T03:31:21;101174.75;;;19.27;99.42
14612;BME280;7392;52.078;11.650;2023-06-22T03:33:49;101181.84;;;19.30;99.81
14612;BME280;7392;52.078;11.650;2023-06-22T03:36:17;101190.69;;;19.33;99.01
14612;BME280;7392;52.078;11.650;2023-06-22T03:38:46;101199.69;;;19.34;98.97
14612;BME280;7392;52.078;11.650;2023-06-22T03:41:16;101194.25;;;19.35;99.44
14612;BME280;7392;52.078;11.650;2023-06-22T03:43:43;101212.09;;;19.38;99.37
14612;BME280;7392;52.078;11.650;2023-06-22T03:46:11;101207.53;;;19.40;99.28
14612;BME280;7392;52.078;11.650;2023-06-22T03:48:39;101207.47;;;19.43;99.53
14612;BME280;7392;52.078;11.650;2023-06-22T03:51:06;101209.19;;;19.46;99.55
14612;BME280;7392;52.078;11.650;2023-06-22T03:53:34;101211.72;;;19.50;98.93
14612;BME280;7392;52.078;11.650;2023-06-22T03:56:02;101210.78;;;19.51;98.35
14612;BME280;7392;52.078;11.650;2023-06-22T03:58:31;101210.69;;;19.54;98.34
14612;BME280;7392;52.078;11.650;2023-06-22T04:00:59;101211.53;;;19.56;98.68
14612;BME280;7392;52.078;11.650;2023-06-22T04:03:27;101211.44;;;19.59;98.29
14612;BME280;7392;52.078;11.650;2023-06-22T04:05:55;101208.56;;;19.64;98.24
14612;BME280;7392;52.078;11.650;2023-06-22T04:08:22;101217.44;;;19.68;98.37
14612;BME280;7392;52.078;11.650;2023-06-22T04:10:50;101218.25;;;19.71;98.58
14612;BME280;7392;52.078;11.650;2023-06-22T04:13:17;101225.31;;;19.75;98.57
14612;BME280;7392;52.078;11.650;2023-06-22T04:15:47;101225.22;;;19.78;98.85
14612;BME280;7392;52.078;11.650;2023-06-22T04:18:14;101231.38;;;19.82;98.59
14612;BME280;7392;52.078;11.650;2023-06-22T04:20:42;101221.38;;;19.86;98.15
14612;BME280;7392;52.078;11.650;2023-06-22T04:23:13;101216.81;;;19.88;97.78
14612;BME280;7392;52.078;11.650;2023-06-22T04:25:41;101216.75;;;19.89;98.09
14612;BME280;7392;52.078;11.650;2023-06-22T04:28:09;101216.63;;;19.94;98.23
14612;BME280;7392;52.078;11.650;2023-06-22T04:30:39;101221.78;;;20.00;98.61
14612;BME280;7392;52.078;11.650;2023-06-22T04:33:14;101218.13;;;20.03;98.28
14612;BME280;7392;52.078;11.650;2023-06-22T04:35:45;101220.66;;;20.07;98.74
14612;BME280;7392;52.078;11.650;2023-06-22T04:38:13;101219.59;;;20.11;98.63
14612;BME280;7392;52.078;11.650;2023-06-22T04:40:40;101220.34;;;20.16;99.19
14612;BME280;7392;52.078;11.650;2023-06-22T04:43:08;101212.09;;;20.21;98.81
14612;BME280;7392;52.078;11.650;2023-06-22T04:45:46;101207.38;;;20.28;99.16
14612;BME280;7392;52.078;11.650;2023-06-22T04:48:33;101205.34;;;20.34;98.98
14612;BME280;7392;52.078;11.650;2023-06-22T04:51:01;101210.44;;;20.42;98.94
14612;BME280;7392;52.078;11.650;2023-06-22T04:53:31;101205.69;;;20.49;99.17
14612;BME280;7392;52.078;11.650;2023-06-22T04:55:59;101203.66;;;20.55;98.78
14612;BME280;7392;52.078;11.650;2023-06-22T04:58:26;101198.97;;;20.61;98.00
14612;BME280;7392;52.078;11.650;2023-06-22T05:00:55;101196.09;;;20.67;97.97
14612;BME280;7392;52.078;11.650;2023-06-22T05:03:24;101187.88;;;20.70;97.67
14612;BME280;7392;52.078;11.650;2023-06-22T05:05:54;101188.41;;;20.80;97.54
14612;BME280;7392;52.078;11.650;2023-06-22T05:08:22;101193.63;;;20.84;97.08
14612;BME280;7392;52.078;11.650;2023-06-22T05:10:53;101188.03;;;20.89;96.88
14612;BME280;7392;52.078;11.650;2023-06-22T05:13:30;101189.59;;;20.96;97.33
14612;BME280;7392;52.078;11.650;2023-06-22T05:15:58;101189.41;;;21.01;97.08
14612;BME280;7392;52.078;11.650;2023-06-22T05:18:29;101192.88;;;21.04;96.92
14612;BME280;7392;52.078;11.650;2023-06-22T05:20:59;101193.59;;;21.09;96.93
14612;BME280;7392;52.078;11.650;2023-06-22T05:23:26;101190.75;;;21.13;96.69
14612;BME280;7392;52.078;11.650;2023-06-22T05:25:54;101183.28;;;21.19;96.46
14612;BME280;7392;52.078;11.650;2023-06-22T05:28:24;101187.63;;;21.23;96.21
14612;BME280;7392;52.078;11.650;2023-06-22T05:30:52;101180.22;;;21.28;96.73
14612;BME280;7392;52.078;11.650;2023-06-22T05:33:19;101173.69;;;21.34;96.92
14612;BME280;7392;52.078;11.650;2023-06-22T05:35:47;101175.25;;;21.40;96.86
14612;BME280;7392;52.078;11.650;2023-06-22T05:38:16;101173.25;;;21.45;96.76
14612;BME280;7392;52.078;11.650;2023-06-22T05:40:44;101162.22;;;21.51;96.76
14612;BME280;7392;52.078;11.650;2023-06-22T05:43:11;101168.31;;;21.56;96.93
14612;BME280;7392;52.078;11.650;2023-06-22T05:45:39;101168.00;;;21.64;96.91
14612;BME280;7392;52.078;11.650;2023-06-22T05:48:07;101170.44;;;21.70;96.97
14612;BME280;7392;52.078;11.650;2023-06-22T05:50:36;101176.41;;;21.78;96.66
14612;BME280;7392;52.078;11.650;2023-06-22T05:53:04;101167.09;;;21.85;96.55
14612;BME280;7392;52.078;11.650;2023-06-22T05:55:34;101173.91;;;21.94;96.29
14612;BME280;7392;52.078;11.650;2023-06-22T05:58:02;101169.06;;;22.02;96.03
14612;BME280;7392;52.078;11.650;2023-06-22T06:00:31;101159.81;;;22.08;95.38
14612;BME280;7392;52.078;11.650;2023-06-22T06:02:59;101169.50;;;22.14;95.17
14612;BME280;7392;52.078;11.650;2023-06-22T06:05:30;101179.16;;;22.19;94.85
14612;BME280;7392;52.078;11.650;2023-06-22T06:07:58;101171.72;;;22.25;94.78
14612;BME280;7392;52.078;11.650;2023-06-22T06:10:26;101168.75;;;22.31;94.58
14612;BME280;7392;52.078;11.650;2023-06-22T06:12:58;101164.97;;;22.35;93.96
14612;BME280;7392;52.078;11.650;2023-06-22T06:15:25;101163.75;;;22.42;93.86
14612;BME280;7392;52.078;11.650;2023-06-22T06:17:53;101154.56;;;22.46;93.95
14612;BME280;7392;52.078;11.650;2023-06-22T06:20:23;101162.38;;;22.52;93.88
14612;BME280;7392;52.078;11.650;2023-06-22T06:22:51;101160.34;;;22.57;93.59
14612;BME280;7392;52.078;11.650;2023-06-22T06:25:18;101171.78;;;22.64;93.08
14612;BME280;7392;52.078;11.650;2023-06-22T06:27:49;101169.66;;;22.71;93.42
14612;BME280;7392;52.078;11.650;2023-06-22T06:30:18;101172.00;;;22.78;93.35
14612;BME280;7392;52.078;11.650;2023-06-22T06:32:46;101168.16;;;22.84;93.31
14612;BME280;7392;52.078;11.650;2023-06-22T06:35:15;101166.03;;;22.91;93.20
14612;BME280;7392;52.078;11.650;2023-06-22T06:37:44;101165.66;;;22.98;93.13
14612;BME280;7392;52.078;11.650;2023-06-22T06:40:14;101166.19;;;23.07;93.01
14612;BME280;7392;52.078;11.650;2023-06-22T06:42:42;101174.84;;;23.15;92.88
14612;BME280;7392;52.078;11.650;2023-06-22T06:45:12;101170.81;;;23.24;92.92
14612;BME280;7392;52.078;11.650;2023-06-22T06:47:41;101166.69;;;23.34;93.20
14612;BME280;7392;52.078;11.650;2023-06-22T06:50:09;101169.84;;;23.44;93.15
14612;BME280;7392;52.078;11.650;2023-06-22T06:52:37;101167.53;;;23.53;92.91
14612;BME280;7392;52.078;11.650;2023-06-22T06:55:05;101161.66;;;23.63;92.53
14612;BME280;7392;52.078;11.650;2023-06-22T06:57:35;101163.81;;;23.74;92.49
14612;BME280;7392;52.078;11.650;2023-06-22T07:00:07;101163.41;;;23.83;91.77
14612;BME280;7392;52.078;11.650;2023-06-22T07:02:36;101170.91;;;23.95;91.36
14612;BME280;7392;52.078;11.650;2023-06-22T07:05:05;101166.84;;;24.04;90.65
14612;BME280;7392;52.078;11.650;2023-06-22T07:07:33;101160.97;;;24.12;89.91
14612;BME280;7392;52.078;11.650;2023-06-22T07:10:04;101157.03;;;24.19;89.01
14612;BME280;7392;52.078;11.650;2023-06-22T07:12:33;101161.22;;;24.24;88.64
14612;BME280;7392;52.078;11.650;2023-06-22T07:15:03;101162.56;;;24.33;87.83
14612;BME280;7392;52.078;11.650;2023-06-22T07:17:31;101160.41;;;24.40;87.00
14612;BME280;7392;52.078;11.650;2023-06-22T07:19:59;101157.28;;;24.48;86.31
14612;BME280;7392;52.078;11.650;2023-06-22T07:22:28;101160.59;;;24.53;84.21
14612;BME280;7392;52.078;11.650;2023-06-22T07:24:55;101161.19;;;24.59;83.56
14612;BME280;7392;52.078;11.650;2023-06-22T07:27:23;101160.88;;;24.66;81.97
14612;BME280;7392;52.078;11.650;2023-06-22T07:29:51;101162.53;;;24.68;80.35
14612;BME280;7392;52.078;11.650;2023-06-22T07:32:19;101165.84;;;24.73;79.69
14612;BME280;7392;52.078;11.650;2023-06-22T07:34:46;101167.72;;;24.73;78.50
14612;BME280;7392;52.078;11.650;2023-06-22T07:37:14;101155.81;;;24.75;78.01
14612;BME280;7392;52.078;11.650;2023-06-22T07:39:43;101166.25;;;24.83;77.81
14612;BME280;7392;52.078;11.650;2023-06-22T07:42:10;101152.31;;;24.89;77.52
14612;BME280;7392;52.078;11.650;2023-06-22T07:44:38;101158.47;;;24.93;77.05
14612;BME280;7392;52.078;11.650;2023-06-22T07:47:06;101158.00;;;25.00;76.95
14612;BME280;7392;52.078;11.650;2023-06-22T07:49:34;101155.66;;;25.10;76.38
14612;BME280;7392;52.078;11.650;2023-06-22T07:52:01;101152.31;;;25.21;77.09
14612;BME280;7392;52.078;11.650;2023-06-22T07:54:32;101152.88;;;25.28;75.93
14612;BME280;7392;52.078;11.650;2023-06-22T07:57:01;101141.75;;;25.32;74.75
14612;BME280;7392;52.078;11.650;2023-06-22T07:59:28;101152.53;;;25.34;73.73
14612;BME280;7392;52.078;11.650;2023-06-22T08:01:56;101146.94;;;25.37;73.13
14612;BME280;7392;52.078;11.650;2023-06-22T08:04:24;101160.34;;;25.40;73.50
14612;BME280;7392;52.078;11.650;2023-06-22T08:06:53;101149.38;;;25.42;73.38
14612;BME280;7392;52.078;11.650;2023-06-22T08:09:21;101157.16;;;25.48;72.93
14612;BME280;7392;52.078;11.650;2023-06-22T08:11:49;101144.69;;;25.60;72.97
14612;BME280;7392;52.078;11.650;2023-06-22T08:14:18;101154.94;;;25.70;73.07
14612;BME280;7392;52.078;11.650;2023-06-22T08:16:45;101156.94;;;25.83;73.00
14612;BME280;7392;52.078;11.650;2023-06-22T08:19:13;101149.97;;;25.93;72.01
14612;BME280;7392;52.078;11.650;2023-06-22T08:21:40;101154.03;;;26.02;71.52
14612;BME280;7392;52.078;11.650;2023-06-22T08:24:08;101157.03;;;26.11;69.64
14612;BME280;7392;52.078;11.650;2023-06-22T08:26:35;101158.22;;;26.22;69.48
14612;BME280;7392;52.078;11.650;2023-06-22T08:29:04;101139.28;;;26.35;69.61
14612;BME280;7392;52.078;11.650;2023-06-22T08:31:33;101149.59;;;26.44;68.18
14612;BME280;7392;52.078;11.650;2023-06-22T08:34:01;101154.66;;;26.50;67.66
14612;BME280;7392;52.078;11.650;2023-06-22T08:36:28;101149.63;;;26.58;66.31
14612;BME280;7392;52.078;11.650;2023-06-22T08:38:59;101154.78;;;26.63;66.13
14612;BME280;7392;52.078;11.650;2023-06-22T08:41:28;101148.97;;;26.69;65.29
14612;BME280;7392;52.078;11.650;2023-06-22T08:43:55;101155.94;;;26.73;65.97
14612;BME280;7392;52.078;11.650;2023-06-22T08:46:23;101162.19;;;26.75;64.75
14612;BME280;7392;52.078;11.650;2023-06-22T08:48:59;101147.59;;;26.76;64.92
14612;BME280;7392;52.078;11.650;2023-06-22T08:51:27;101153.81;;;26.78;64.64
14612;BME280;7392;52.078;11.650;2023-06-22T08:53:55;101150.91;;;26.81;64.64
14612;BME280;7392;52.078;11.650;2023-06-22T08:56:23;101148.66;;;26.88;64.43
14612;BME280;7392;52.078;11.650;2023-06-22T08:58:50;101125.19;;;27.00;64.62
14612;BME280;7392;52.078;11.650;2023-06-22T09:01:18;101139.56;;;27.16;65.38
14612;BME280;7392;52.078;11.650;2023-06-22T09:03:46;101139.44;;;27.32;65.35
14612;BME280;7392;52.078;11.650;2023-06-22T09:06:23;101135.19;;;27.55;65.16
14612;BME280;7392;52.078;11.650;2023-06-22T09:08:50;101135.56;;;27.76;64.65
14612;BME280;7392;52.078;11.650;2023-06-22T09:11:18;101152.69;;;27.93;62.96
14612;BME280;7392;52.078;11.650;2023-06-22T09:13:46;101144.38;;;28.07;61.61
14612;BME280;7392;52.078;11.650;2023-06-22T09:16:13;101148.78;;;28.23;61.53
14612;BME280;7392;52.078;11.650;2023-06-22T09:18:41;101146.06;;;28.35;61.56
14612;BME280;7392;52.078;11.650;2023-06-22T09:21:09;101140.69;;;28.47;60.54
14612;BME280;7392;52.078;11.650;2023-06-22T09:23:38;101132.19;;;28.64;60.93
14612;BME280;7392;52.078;11.650;2023-06-22T09:26:05;101130.53;;;28.87;61.74
14612;BME280;7392;52.078;11.650;2023-06-22T09:28:33;101121.81;;;29.06;61.66
14612;BME280;7392;52.078;11.650;2023-06-22T09:31:00;101121.69;;;29.21;60.54
14612;BME280;7392;52.078;11.650;2023-06-22T09:33:28;101123.75;;;29.30;59.03
14612;BME280;7392;52.078;11.650;2023-06-22T09:35:56;101120.69;;;29.35;58.48
14612;BME280;7392;52.078;11.650;2023-06-22T09:38:24;101126.31;;;29.44;58.64
14612;BME280;7392;52.078;11.650;2023-06-22T09:40:52;101116.63;;;29.52;58.09
14612;BME280;7392;52.078;11.650;2023-06-22T09:43:20;101119.44;;;29.63;57.62
14612;BME280;7392;52.078;11.650;2023-06-22T09:45:48;101111.50;;;29.71;57.58
14612;BME280;7392;52.078;11.650;2023-06-22T09:48:16;101109.31;;;29.76;57.51
14612;BME280;7392;52.078;11.650;2023-06-22T09:50:44;101097.41;;;29.77;56.87
14612;BME280;7392;52.078;11.650;2023-06-22T09:53:11;101100.75;;;29.81;57.17
14612;BME280;7392;52.078;11.650;2023-06-22T09:55:39;101100.38;;;29.86;57.04
14612;BME280;7392;52.078;11.650;2023-06-22T09:58:08;101105.72;;;29.87;56.18
14612;BME280;7392;52.078;11.650;2023-06-22T10:00:36;101102.41;;;29.95;56.42
14612;BME280;7392;52.078;11.650;2023-06-22T10:03:04;101102.28;;;29.96;56.63
14612;BME280;7392;52.078;11.650;2023-06-22T10:05:32;101098.81;;;30.06;56.16
14612;BME280;7392;52.078;11.650;2023-06-22T10:08:00;101106.31;;;30.26;56.39
14612;BME280;7392;52.078;11.650;2023-06-22T10:10:27;101099.53;;;30.43;54.95
14612;BME280;7392;52.078;11.650;2023-06-22T10:12:56;101096.91;;;30.53;54.28
14612;BME280;7392;52.078;11.650;2023-06-22T10:15:26;101098.66;;;30.65;55.02
14612;BME280;7392;52.078;11.650;2023-06-22T10:17:54;101082.69;;;30.82;55.10
14612;BME280;7392;52.078;11.650;2023-06-22T10:20:22;101076.19;;;31.05;55.64
14612;BME280;7392;52.078;11.650;2023-06-22T10:22:50;101069.75;;;31.27;55.80
14612;BME280;7392;52.078;11.650;2023-06-22T10:25:18;101070.59;;;31.39;54.70
14612;BME280;7392;52.078;11.650;2023-06-22T10:27:45;101071.78;;;31.46;54.52
14612;BME280;7392;52.078;11.650;2023-06-22T10:30:14;101063.94;;;31.53;53.92
14612;BME280;7392;52.078;11.650;2023-06-22T10:32:43;101081.09;;;31.66;53.69
14612;BME280;7392;52.078;11.650;2023-06-22T10:35:11;101069.25;;;31.87;53.16
14612;BME280;7392;52.078;11.650;2023-06-22T10:37:40;101063.63;;;32.10;54.12
14612;BME280;7392;52.078;11.650;2023-06-22T10:40:10;101059.56;;;32.25;52.87
14612;BME280;7392;52.078;11.650;2023-06-22T10:42:38;101068.97;;;32.32;51.69
14612;BME280;7392;52.078;11.650;2023-06-22T10:45:07;101059.44;;;32.36;50.98
14612;BME280;7392;52.078;11.650;2023-06-22T10:47:36;101062.56;;;32.53;50.94
14612;BME280;7392;52.078;11.650;2023-06-22T10:50:06;101057.88;;;32.65;50.40
14612;BME280;7392;52.078;11.650;2023-06-22T10:52:34;101048.75;;;32.74;50.06
14612;BME280;7392;52.078;11.650;2023-06-22T10:55:01;101053.25;;;32.85;49.47
14612;BME280;7392;52.078;11.650;2023-06-22T10:57:29;101047.09;;;33.02;48.77
14612;BME280;7392;52.078;11.650;2023-06-22T10:59:57;101050.59;;;33.14;48.55
14612;BME280;7392;52.078;11.650;2023-06-22T11:02:24;101044.13;;;33.34;49.40
14612;BME280;7392;52.078;11.650;2023-06-22T11:04:54;101038.88;;;33.61;50.73
14612;BME280;7392;52.078;11.650;2023-06-22T11:07:23;101037.09;;;33.89;49.82
14612;BME280;7392;52.078;11.650;2023-06-22T11:09:51;101036.03;;;34.09;49.11
14612;BME280;7392;52.078;11.650;2023-06-22T11:12:18;101043.97;;;34.32;48.86
14612;BME280;7392;52.078;11.650;2023-06-22T11:14:46;101046.63;;;34.52;48.00
14612;BME280;7392;52.078;11.650;2023-06-22T11:17:14;101035.41;;;34.63;46.64
14612;BME280;7392;52.078;11.650;2023-06-22T11:19:41;101033.41;;;34.83;46.49
14612;BME280;7392;52.078;11.650;2023-06-22T11:22:09;101027.34;;;34.79;43.90
14612;BME280;7392;52.078;11.650;2023-06-22T11:24:38;101027.69;;;34.66;44.26
14612;BME280;7392;52.078;11.650;2023-06-22T11:27:06;101027.50;;;34.78;44.50
14612;BME280;7392;52.078;11.650;2023-06-22T11:29:33;101028.69;;;34.65;43.99
14612;BME280;7392;52.078;11.650;2023-06-22T11:32:05;101022.94;;;34.59;44.42
14612;BME280;7392;52.078;11.650;2023-06-22T11:34:33;101017.81;;;34.64;44.13
14612;BME280;7392;52.078;11.650;2023-06-22T11:37:01;101014.63;;;34.69;42.84
14612;BME280;7392;52.078;11.650;2023-06-22T11:39:29;101023.81;;;34.87;43.62
14612;BME280;7392;52.078;11.650;2023-06-22T11:42:09;101010.03;;;35.05;43.95
14612;BME280;7392;52.078;11.650;2023-06-22T11:44:37;101010.88;;;34.88;42.57
14612;BME280;7392;52.078;11.650;2023-06-22T11:47:05;101009.72;;;34.90;42.24
14612;BME280;7392;52.078;11.650;2023-06-22T11:49:33;101002.56;;;34.97;42.40
14612;BME280;7392;52.078;11.650;2023-06-22T11:52:01;100992.94;;;35.01;42.25
14612;BME280;7392;52.078;11.650;2023-06-22T11:54:28;100997.97;;;35.06;42.78
14612;BME280;7392;52.078;11.650;2023-06-22T11:56:56;100998.13;;;35.05;43.12
14612;BME280;7392;52.078;11.650;2023-06-22T11:59:25;100989.78;;;35.14;43.04
14612;BME280;7392;52.078;11.650;2023-06-22T12:01:52;100986.41;;;35.02;41.64
14612;BME280;7392;52.078;11.650;2023-06-22T12:04:20;100989.94;;;35.13;42.50
14612;BME280;7392;52.078;11.650;2023-06-22T12:06:47;100976.97;;;35.23;42.37
14612;BME280;7392;52.078;11.650;2023-06-22T12:09:15;100978.28;;;35.37;42.31
14612;BME280;7392;52.078;11.650;2023-06-22T12:11:43;100976.53;;;35.36;42.50
14612;BME280;7392;52.078;11.650;2023-06-22T12:14:10;100974.00;;;35.43;43.08
14612;BME280;7392;52.078;11.650;2023-06-22T12:16:39;100978.19;;;35.47;43.04
14612;BME280;7392;52.078;11.650;2023-06-22T12:19:07;100972.13;;;35.43;42.42
14612;BME280;7392;52.078;11.650;2023-06-22T12:21:36;100964.25;;;35.30;42.61
14612;BME280;7392;52.078;11.650;2023-06-22T12:24:05;100956.84;;;35.13;43.51
14612;BME280;7392;52.078;11.650;2023-06-22T12:26:33;100943.59;;;35.16;44.39
14612;BME280;7392;52.078;11.650;2023-06-22T12:29:01;100947.63;;;35.40;44.57
14612;BME280;7392;52.078;11.650;2023-06-22T12:31:28;100933.59;;;35.59;44.73
14612;BME280;7392;52.078;11.650;2023-06-22T12:33:57;100927.09;;;35.69;44.05
14612;BME280;7392;52.078;11.650;2023-06-22T12:36:25;100917.50;;;35.73;44.71
14612;BME280;7392;52.078;11.650;2023-06-22T12:38:52;100906.84;;;35.86;44.97
14612;BME280;7392;52.078;11.650;2023-06-22T12:41:22;100894.59;;;35.81;43.66
14612;BME280;7392;52.078;11.650;2023-06-22T12:43:49;100881.63;;;35.81;44.46
14612;BME280;7392;52.078;11.650;2023-06-22T12:46:17;100883.38;;;35.90;43.93
14612;BME280;7392;52.078;11.650;2023-06-22T12:48:44;100880.19;;;36.03;43.02
14612;BME280;7392;52.078;11.650;2023-06-22T12:51:20;100884.66;;;36.04;41.00
14612;BME280;7392;52.078;11.650;2023-06-22T12:53:48;100884.16;;;36.09;40.46
14612;BME280;7392;52.078;11.650;2023-06-22T12:56:15;100879.84;;;36.14;40.70
14612;BME280;7392;52.078;11.650;2023-06-22T12:58:43;100881.41;;;36.09;40.18